Slab Fork, WV (25920)

1:45 PM EST on February 01, 2015 (GMT -0500)
Fairdale | Change Station
CLOSE
Current Station
Personal Weather Station
Location: Lester, WV
Elevation: 1938 ft
Nearby Weather Stations

Elev 1938 ft 37.74 °N, 81.35 °W | Updated 4 seconds ago

Mostly Cloudy
Mostly Cloudy
36.3 °F
Feels Like 36 °F
N
0.0
Wind Variable Wind from North
Gusts 0.0 mph

Today
High -- | Low -- °F
--% Chance of Precip.
Yesterday
High -- | Low -- °F
Precip. -- in
7:29 AM 5:48 PM
Waxing Gibbous, 96% visible
Pressure 30.05 in
Visibility 10.0 miles
Clouds Few 12000 ft
Windchill 36 °F
Dew Point 15 °F
Humidity 42%
Rainfall 0.00 in
Snow Depth Not available.
UV 4 out of 12
Pollen .30 out of 12
Air Quality Not available.
Flu Activity Not available.
METAR KBKW 011751Z AUTO 15006G16KT 10SM FEW120 05/M12 A2999 RMK AO2 SLP176 T00501117 10050 21006 58033

More Conditions Fewer Conditions

Pressure 30.05 in
Visibility 10.0 miles
Clouds Few 12000 ft
Windchill 36 °F
Dew Point 15 °F
Humidity 42%
Rainfall 0.00 in
Snow Depth Not available.
UV 4 out of 12
Pollen .30 out of 12
Air Quality Not available.
Flu Activity Not available.
METAR KBKW 011751Z AUTO 15006G16KT 10SM FEW120 05/M12 A2999 RMK AO2 SLP176 T00501117 10050 21006 58033

More Conditions Fewer Conditions

10-Day Weather Forecast

Almanac

Astronomy

Feb. 01, 2015 Rise Set
Actual Time
Civil Twilight
Nautical Twilight
Astronomical Twilight
Moon
Length of Visible Light
Length of Day
Tomorrow will be .
, % of the Moon is Illuminated

Today's Extremes

State Highs State Lows

Community

WunderPhotos

Upload Photos

1,792,434 photos uploaded!

WunderBlogs® & News

Nearby

Air Quality

  Air Quality AQ Index Pollutant
Not available.

Snow Depth

Station Depth Elevation

Earthquake Activity

City Distance Mag. Time & Date
Minimum magnitude displayed is 2.5.

Coastal Water Temperatures

Place Temperature

Nearby Weather Stations